createdAt,value
2022-09-09T00:02:19.934Z,12.37
2022-09-09T00:04:59.484Z,12.35
2022-09-09T00:07:38.731Z,12.33
2022-09-09T00:10:17.187Z,12.33
2022-09-09T00:12:51.910Z,12.34
2022-09-09T00:15:21.651Z,12.34
2022-09-09T00:17:53.875Z,12.35
2022-09-09T00:20:25.752Z,12.37
2022-09-09T00:22:58.282Z,12.38
2022-09-09T00:25:32.763Z,12.43
2022-09-09T00:27:59.298Z,12.41
2022-09-09T00:30:28.380Z,12.42
2022-09-09T00:33:01.188Z,12.48
2022-09-09T00:35:32.484Z,12.51
2022-09-09T00:38:04.215Z,12.52
2022-09-09T00:40:34.507Z,12.56
2022-09-09T00:43:17.770Z,12.55
2022-09-09T00:46:00.346Z,12.58
2022-09-09T00:48:36.043Z,12.63
2022-09-09T00:51:11.503Z,12.62
2022-09-09T00:53:43.885Z,12.64
2022-09-09T00:56:14.443Z,12.68
2022-09-09T00:58:43.384Z,12.72
2022-09-09T01:01:11.865Z,12.76
2022-09-09T01:03:48.150Z,12.86
2022-09-09T01:06:22.072Z,13.00
2022-09-09T01:09:17.914Z,13.01
2022-09-09T01:11:53.827Z,13.00
2022-09-09T01:14:39.170Z,13.15
2022-09-09T01:17:12.656Z,13.28
2022-09-09T01:19:56.636Z,13.35
2022-09-09T01:22:33.055Z,13.31
2022-09-09T01:25:28.659Z,13.31
2022-09-09T01:27:58.646Z,13.38
2022-09-09T01:30:27.142Z,13.45
2022-09-09T01:32:56.311Z,13.42
2022-09-09T01:35:33.329Z,13.32
2022-09-09T01:37:59.907Z,13.31
2022-09-09T01:40:26.975Z,13.33
2022-09-09T01:42:54.499Z,13.26
2022-09-09T01:45:23.204Z,13.24
2022-09-09T01:47:50.344Z,13.24
2022-09-09T01:50:18.020Z,13.19
2022-09-09T01:52:47.431Z,13.08
2022-09-09T01:55:14.417Z,13.04
2022-09-09T01:57:49.239Z,13.22
2022-09-09T02:00:16.567Z,13.33
2022-09-09T02:02:56.171Z,13.42
2022-09-09T02:05:31.641Z,13.49
2022-09-09T02:08:04.162Z,13.51
2022-09-09T02:10:34.781Z,13.49
2022-09-09T02:13:05.617Z,13.43
2022-09-09T02:15:38.064Z,13.48
2022-09-09T02:18:09.494Z,13.55
2022-09-09T02:20:38.764Z,13.58
2022-09-09T02:23:06.792Z,13.58
2022-09-09T02:25:36.631Z,13.55
2022-09-09T02:28:07.760Z,13.53
2022-09-09T02:30:35.969Z,13.50
2022-09-09T02:33:05.851Z,13.45
2022-09-09T02:35:35.150Z,13.41
2022-09-09T02:38:07.338Z,13.34
2022-09-09T02:40:33.908Z,13.31
2022-09-09T02:43:00.619Z,13.27
2022-09-09T02:45:35.771Z,13.22
2022-09-09T02:48:10.930Z,13.21
2022-09-09T02:50:47.004Z,13.18
2022-09-09T02:53:18.004Z,13.17
2022-09-09T02:55:48.670Z,13.18
2022-09-09T02:58:18.661Z,13.14
2022-09-09T03:00:47.277Z,13.09
2022-09-09T03:03:14.135Z,13.02
2022-09-09T03:05:44.031Z,12.97
2022-09-09T03:08:10.851Z,12.96
2022-09-09T03:10:37.357Z,12.95
2022-09-09T03:13:04.533Z,12.92
2022-09-09T03:15:31.068Z,12.92
2022-09-09T03:17:57.793Z,12.91
2022-09-09T03:20:24.397Z,12.92
2022-09-09T03:22:52.534Z,12.92
2022-09-09T03:25:19.089Z,12.93
2022-09-09T03:27:45.623Z,12.92
2022-09-09T03:30:12.172Z,12.86
2022-09-09T03:32:38.664Z,12.78
2022-09-09T03:35:05.798Z,12.73
2022-09-09T03:37:32.402Z,12.69
2022-09-09T03:40:00.438Z,12.67
2022-09-09T03:42:27.340Z,12.60
2022-09-09T03:44:53.953Z,12.52
2022-09-09T03:47:22.206Z,12.50
2022-09-09T03:49:49.107Z,12.44
2022-09-09T03:52:17.684Z,12.38
2022-09-09T03:54:45.914Z,12.33
2022-09-09T03:57:13.771Z,12.28
2022-09-09T03:59:40.298Z,12.30
2022-09-09T04:02:06.845Z,12.43
2022-09-09T04:04:33.549Z,12.43
2022-09-09T04:07:00.176Z,12.43
2022-09-09T04:09:26.691Z,12.39
2022-09-09T04:11:53.434Z,12.41
2022-09-09T04:14:21.866Z,12.32
2022-09-09T04:16:48.513Z,12.29
2022-09-09T04:19:15.186Z,12.24
2022-09-09T04:21:42.215Z,12.18
2022-09-09T04:24:09.418Z,12.21
2022-09-09T04:26:36.860Z,12.35
2022-09-09T04:29:03.575Z,12.32
2022-09-09T04:31:31.983Z,12.32
2022-09-09T04:33:58.507Z,12.52
2022-09-09T04:36:25.209Z,12.43
2022-09-09T04:38:51.757Z,12.34
2022-09-09T04:41:18.288Z,12.24
2022-09-09T04:43:44.912Z,12.15
2022-09-09T04:46:11.487Z,12.04
2022-09-09T04:48:39.545Z,11.96
2022-09-09T04:51:06.944Z,11.89
2022-09-09T04:53:34.209Z,11.86
2022-09-09T04:56:05.379Z,11.80
2022-09-09T04:58:32.236Z,11.78
2022-09-09T05:01:05.491Z,11.85
2022-09-09T05:03:32.257Z,11.83
2022-09-09T05:06:05.545Z,11.81
2022-09-09T05:08:32.205Z,11.80
2022-09-09T05:10:58.710Z,11.81
2022-09-09T05:13:25.392Z,11.80
2022-09-09T05:15:52.929Z,11.89
2022-09-09T05:18:19.742Z,11.90
2022-09-09T05:20:46.276Z,11.90
2022-09-09T05:23:14.172Z,11.90
2022-09-09T05:25:41.149Z,11.92
2022-09-09T05:28:07.777Z,11.94
2022-09-09T05:30:34.307Z,12.01
2022-09-09T05:33:01.043Z,12.09
2022-09-09T05:35:28.075Z,12.28
2022-09-09T05:37:54.669Z,12.42
2022-09-09T05:40:22.711Z,12.52
2022-09-09T05:42:49.238Z,12.57
2022-09-09T05:45:15.882Z,12.61
2022-09-09T05:47:42.392Z,12.67
2022-09-09T05:50:09.366Z,12.80
2022-09-09T05:52:35.876Z,13.00
2022-09-09T05:55:02.518Z,13.19
2022-09-09T05:57:30.490Z,13.35
2022-09-09T05:59:57.001Z,13.43
2022-09-09T06:02:23.615Z,13.57
2022-09-09T06:04:50.207Z,13.62
2022-09-09T06:07:16.840Z,13.73
2022-09-09T06:09:43.353Z,13.82
2022-09-09T06:12:10.080Z,13.94
2022-09-09T06:14:38.053Z,14.05
2022-09-09T06:17:04.994Z,14.25
2022-09-09T06:19:31.706Z,14.52
2022-09-09T06:21:58.259Z,14.71
2022-09-09T06:24:24.941Z,14.83
2022-09-09T06:26:51.551Z,14.96
2022-09-09T06:29:18.086Z,15.01
2022-09-09T06:31:46.403Z,15.09
2022-09-09T06:34:13.025Z,15.22
2022-09-09T06:36:39.820Z,15.34
2022-09-09T06:39:10.862Z,15.43
2022-09-09T06:41:40.319Z,15.40
2022-09-09T06:44:06.825Z,15.41
2022-09-09T06:46:33.452Z,15.43
2022-09-09T06:49:01.788Z,15.48
2022-09-09T06:51:30.345Z,15.48
2022-09-09T06:53:58.582Z,15.53
2022-09-09T06:56:27.129Z,15.55
2022-09-09T06:58:54.530Z,15.54
2022-09-09T07:01:22.616Z,15.54
2022-09-09T07:03:51.231Z,15.61
2022-09-09T07:06:21.301Z,15.69
2022-09-09T07:08:56.494Z,15.86
2022-09-09T07:11:25.500Z,15.90
2022-09-09T07:13:52.036Z,15.98
2022-09-09T07:16:20.866Z,15.89
2022-09-09T07:18:47.978Z,15.83
2022-09-09T07:21:15.453Z,15.79
2022-09-09T07:23:44.165Z,15.70
2022-09-09T07:26:12.126Z,15.67
2022-09-09T07:28:39.172Z,15.64
2022-09-09T07:31:07.090Z,15.59
2022-09-09T07:33:35.484Z,15.58
2022-09-09T07:36:07.469Z,15.51
2022-09-09T07:38:38.329Z,15.44
2022-09-09T07:41:08.270Z,15.38
2022-09-09T07:43:35.044Z,15.32
2022-09-09T07:46:01.621Z,15.28
2022-09-09T07:48:28.458Z,15.24
2022-09-09T07:51:04.654Z,15.28
2022-09-09T07:53:31.601Z,15.27
2022-09-09T07:56:04.065Z,15.28
2022-09-09T07:58:35.154Z,15.31
2022-09-09T08:01:10.065Z,15.37
2022-09-09T08:03:37.010Z,15.41
2022-09-09T08:06:04.516Z,15.49
2022-09-09T08:08:31.111Z,15.60
2022-09-09T08:11:09.161Z,15.84
2022-09-09T08:13:38.268Z,16.07
2022-09-09T08:16:07.032Z,16.08
2022-09-09T08:18:34.016Z,16.07
2022-09-09T08:21:06.480Z,16.08
2022-09-09T08:23:33.084Z,16.16
2022-09-09T08:26:04.637Z,16.41
2022-09-09T08:28:31.316Z,16.69
2022-09-09T08:31:06.579Z,16.89
2022-09-09T08:33:33.236Z,17.13
2022-09-09T08:35:59.796Z,17.40
2022-09-09T08:38:26.496Z,17.78
2022-09-09T08:40:58.944Z,18.02
2022-09-09T08:43:27.081Z,17.91
2022-09-09T08:46:02.147Z,18.06
2022-09-09T08:48:46.281Z,18.16
2022-09-09T08:51:14.702Z,18.29
2022-09-09T08:53:46.112Z,18.53
2022-09-09T08:56:15.326Z,18.59
2022-09-09T08:58:47.283Z,18.79
2022-09-09T09:01:42.828Z,18.91
2022-09-09T09:04:27.943Z,19.43
2022-09-09T09:07:05.503Z,19.45
2022-09-09T09:09:43.411Z,19.49
2022-09-09T09:12:17.245Z,19.13
2022-09-09T09:14:46.701Z,18.85
2022-09-09T09:17:15.650Z,18.55
2022-09-09T09:19:45.054Z,18.02
2022-09-09T09:22:19.010Z,18.37
2022-09-09T09:24:52.060Z,18.61
2022-09-09T09:27:27.250Z,18.92
2022-09-09T09:30:22.424Z,19.35
2022-09-09T09:32:57.024Z,19.37
2022-09-09T09:35:25.091Z,19.24
2022-09-09T09:40:49.003Z,19.23
2022-09-09T09:43:24.807Z,19.03
2022-09-09T09:46:07.257Z,19.70
2022-09-09T09:48:38.060Z,20.15
2022-09-09T09:51:10.747Z,19.90
2022-09-09T09:53:39.606Z,20.23
2022-09-09T09:56:08.935Z,20.21
2022-09-09T09:58:51.410Z,19.86
2022-09-09T10:01:23.010Z,20.09
2022-09-09T10:03:52.139Z,20.23
2022-09-09T10:06:30.633Z,20.17
2022-09-09T10:08:57.173Z,19.88
2022-09-09T10:11:38.522Z,19.62
2022-09-09T10:14:13.095Z,19.81
2022-09-09T10:17:04.054Z,19.75
2022-09-09T10:19:32.589Z,19.80
2022-09-09T10:22:13.387Z,19.83
2022-09-09T10:25:13.228Z,19.49
2022-09-09T10:27:56.887Z,19.22
2022-09-09T10:30:35.454Z,19.57
2022-09-09T10:35:50.149Z,19.91
2022-09-09T10:38:22.199Z,19.91
2022-09-09T10:41:03.925Z,19.75
2022-09-09T10:43:46.423Z,19.94
2022-09-09T10:46:23.954Z,20.10
2022-09-09T10:49:06.710Z,20.60
2022-09-09T10:51:40.518Z,20.90
2022-09-09T10:54:30.280Z,20.46
2022-09-09T10:57:04.552Z,20.14
2022-09-09T10:59:35.885Z,20.23
2022-09-09T11:02:14.187Z,21.06
2022-09-09T11:04:46.347Z,21.90
2022-09-09T11:07:25.561Z,22.14
2022-09-09T11:10:01.532Z,21.95
2022-09-09T11:12:31.762Z,21.89
2022-09-09T11:15:03.719Z,21.43
2022-09-09T11:17:37.499Z,20.92
2022-09-09T11:20:06.944Z,20.41
2022-09-09T11:22:37.014Z,20.10
2022-09-09T11:25:11.655Z,20.10
2022-09-09T11:27:45.587Z,21.21
2022-09-09T11:30:44.175Z,21.49
2022-09-09T11:33:43.374Z,21.93
2022-09-09T11:36:29.060Z,22.02
2022-09-09T11:39:03.803Z,21.51
2022-09-09T11:41:37.467Z,21.28
2022-09-09T11:44:12.171Z,20.93
2022-09-09T11:46:40.620Z,20.46
2022-09-09T11:49:27.072Z,20.34
2022-09-09T11:51:53.649Z,20.33
2022-09-09T11:54:30.307Z,21.66
2022-09-09T11:56:58.713Z,21.89
2022-09-09T11:59:27.618Z,21.70
2022-09-09T12:01:58.115Z,21.05
2022-09-09T12:04:32.837Z,21.24
2022-09-09T12:07:05.410Z,22.00
2022-09-09T12:09:46.191Z,22.02
2022-09-09T12:12:29.736Z,22.58
2022-09-09T12:14:59.830Z,22.74
2022-09-09T12:17:28.287Z,22.77
2022-09-09T12:20:02.238Z,22.09
2022-09-09T12:22:40.798Z,22.54
2022-09-09T12:25:23.166Z,23.07
2022-09-09T12:28:02.961Z,23.16
2022-09-09T12:30:32.951Z,22.50
2022-09-09T12:33:08.416Z,22.94
2022-09-09T12:35:35.657Z,23.33
2022-09-09T12:38:05.429Z,23.66
2022-09-09T12:40:33.669Z,24.16
2022-09-09T12:43:01.965Z,24.44
2022-09-09T12:45:32.601Z,24.69
2022-09-09T12:48:02.686Z,24.77
2022-09-09T12:50:32.013Z,25.25
2022-09-09T12:53:00.483Z,24.93
2022-09-09T12:55:29.744Z,25.23
2022-09-09T12:57:57.197Z,24.42
2022-09-09T13:00:26.197Z,24.59
2022-09-09T13:02:55.185Z,25.15
2022-09-09T13:05:24.409Z,25.50
2022-09-09T13:07:51.242Z,25.51
2022-09-09T13:10:36.260Z,25.56
2022-09-09T13:13:14.779Z,24.82
2022-09-09T13:15:50.387Z,25.33
2022-09-09T13:18:19.023Z,25.34
2022-09-09T13:20:47.938Z,25.27
2022-09-09T13:23:16.151Z,25.27
2022-09-09T13:25:53.744Z,24.98
2022-09-09T13:28:22.768Z,25.21
2022-09-09T13:31:02.933Z,25.37
2022-09-09T13:33:32.022Z,25.04
2022-09-09T13:36:00.528Z,24.06
2022-09-09T13:38:30.361Z,23.68
2022-09-09T13:40:59.354Z,24.10
2022-09-09T13:43:27.476Z,24.41
2022-09-09T13:45:57.590Z,24.79
2022-09-09T13:48:24.436Z,24.76
2022-09-09T13:51:05.156Z,25.78
2022-09-09T13:53:31.718Z,25.80
2022-09-09T13:55:59.214Z,25.33
2022-09-09T13:58:26.240Z,24.75
2022-09-09T14:00:53.920Z,24.27
2022-09-09T14:03:22.274Z,24.19
2022-09-09T14:05:49.200Z,24.54
2022-09-09T14:08:24.321Z,24.38
2022-09-09T14:10:50.832Z,24.84
2022-09-09T14:13:17.444Z,25.29
2022-09-09T14:15:44.119Z,25.34
2022-09-09T14:18:12.602Z,24.74
2022-09-09T14:20:40.700Z,24.21
2022-09-09T14:23:10.653Z,24.54
2022-09-09T14:25:37.272Z,24.89
2022-09-09T14:28:03.790Z,24.79
2022-09-09T14:30:30.351Z,24.99
2022-09-09T14:32:56.893Z,24.44
2022-09-09T14:35:23.409Z,24.62
2022-09-09T14:37:51.379Z,24.76
2022-09-09T14:40:18.129Z,23.63
2022-09-09T14:42:44.744Z,23.87
2022-09-09T14:45:12.502Z,24.24
2022-09-09T14:47:38.996Z,23.63
2022-09-09T14:50:06.708Z,24.53
2022-09-09T14:52:33.320Z,24.64
2022-09-09T14:55:01.413Z,25.23
2022-09-09T14:57:27.953Z,25.34
2022-09-09T14:59:54.607Z,24.70
2022-09-09T15:02:21.139Z,24.23
2022-09-09T15:04:47.701Z,24.16
2022-09-09T15:07:14.204Z,24.48
2022-09-09T15:09:40.719Z,24.59
2022-09-09T15:12:08.844Z,24.54
2022-09-09T15:14:35.396Z,24.13
2022-09-09T15:17:01.892Z,24.02
2022-09-09T15:19:28.385Z,24.31
2022-09-09T15:21:54.985Z,24.43
2022-09-09T15:24:21.533Z,23.83
2022-09-09T15:26:48.122Z,22.74
2022-09-09T15:29:15.956Z,23.00
2022-09-09T15:31:42.460Z,23.07
2022-09-09T15:34:09.228Z,23.40
2022-09-09T15:36:37.659Z,24.00
2022-09-09T15:39:06.349Z,23.74
2022-09-09T15:41:33.286Z,24.31
2022-09-09T15:44:00.718Z,23.91
2022-09-09T15:46:33.421Z,23.94
2022-09-09T15:49:05.576Z,23.65
2022-09-09T15:51:47.954Z,23.08
2022-09-09T15:54:16.503Z,22.87
2022-09-09T15:56:43.208Z,23.17
2022-09-09T15:59:10.321Z,23.66
2022-09-09T16:01:38.934Z,23.79
2022-09-09T16:04:05.710Z,23.96
2022-09-09T16:06:32.249Z,23.70
2022-09-09T16:08:59.240Z,23.78
2022-09-09T16:11:27.541Z,23.92
2022-09-09T16:13:55.379Z,24.46
2022-09-09T16:16:24.260Z,24.41
2022-09-09T16:18:54.246Z,23.39
2022-09-09T16:21:23.036Z,22.60
2022-09-09T16:23:51.278Z,21.50
2022-09-09T16:26:19.084Z,20.63
2022-09-09T16:28:45.678Z,19.93
2022-09-09T16:31:15.128Z,19.84
2022-09-09T16:33:41.713Z,19.45
2022-09-09T16:36:12.096Z,19.21
2022-09-09T16:38:39.394Z,18.93
2022-09-09T16:41:07.584Z,18.83
2022-09-09T16:43:35.036Z,18.66
2022-09-09T16:46:01.875Z,18.57
2022-09-09T16:48:32.309Z,18.39
2022-09-09T16:51:02.499Z,18.39
2022-09-09T16:53:30.465Z,18.32
2022-09-09T16:55:57.119Z,18.22
2022-09-09T16:58:23.608Z,18.09
2022-09-09T17:00:50.151Z,18.03
2022-09-09T17:03:16.658Z,17.95
2022-09-09T17:05:43.151Z,17.92
2022-09-09T17:08:09.648Z,17.83
2022-09-09T17:10:42.981Z,17.68
2022-09-09T17:13:09.603Z,17.59
2022-09-09T17:15:40.422Z,17.59
2022-09-09T17:18:06.953Z,17.55
2022-09-09T17:20:46.009Z,17.48
2022-09-09T17:23:13.821Z,17.43
2022-09-09T17:25:42.271Z,17.37
2022-09-09T17:28:08.867Z,17.32
2022-09-09T17:30:35.893Z,17.24
2022-09-09T17:33:02.563Z,17.17
2022-09-09T17:35:29.100Z,17.05
2022-09-09T17:37:55.592Z,17.07
2022-09-09T17:40:22.503Z,17.04
2022-09-09T17:42:50.417Z,16.98
2022-09-09T17:45:17.250Z,16.88
2022-09-09T17:47:43.767Z,16.89
2022-09-09T17:50:10.774Z,16.83
2022-09-09T17:52:37.416Z,16.78
2022-09-09T17:55:04.639Z,16.74
2022-09-09T17:57:31.266Z,16.75
2022-09-09T17:59:59.237Z,16.73
2022-09-09T18:02:25.768Z,16.69
2022-09-09T18:04:52.405Z,16.65
2022-09-09T18:07:18.918Z,16.65
2022-09-09T18:09:45.443Z,16.61
2022-09-09T18:12:11.944Z,16.54
2022-09-09T18:14:38.478Z,16.49
2022-09-09T18:17:06.385Z,16.48
2022-09-09T18:19:33.303Z,16.48
2022-09-09T18:22:02.428Z,16.44
2022-09-09T18:24:31.414Z,16.40
2022-09-09T18:26:57.970Z,16.35
2022-09-09T18:29:24.906Z,16.34
2022-09-09T18:31:51.976Z,16.29
2022-09-09T18:34:21.499Z,16.29
2022-09-09T18:36:50.700Z,16.29
2022-09-09T18:39:18.395Z,16.24
2022-09-09T18:41:46.289Z,16.18
2022-09-09T18:44:15.587Z,16.17
2022-09-09T18:46:43.044Z,16.09
2022-09-09T18:49:10.502Z,16.02
2022-09-09T18:51:40.196Z,15.95
2022-09-09T18:54:11.534Z,15.90
2022-09-09T18:56:38.668Z,15.81
2022-09-09T18:59:07.226Z,15.71
2022-09-09T19:01:34.629Z,15.63
2022-09-09T19:04:01.522Z,15.57
2022-09-09T19:06:30.268Z,15.46
2022-09-09T19:09:02.883Z,15.40
2022-09-09T19:11:30.046Z,15.34
2022-09-09T19:13:59.390Z,15.35
2022-09-09T19:16:30.298Z,15.32
2022-09-09T19:18:58.941Z,15.30
2022-09-09T19:21:27.809Z,15.26
2022-09-09T19:23:57.066Z,15.23
2022-09-09T19:26:24.918Z,15.19
2022-09-09T19:28:51.579Z,15.14
2022-09-09T19:31:19.754Z,15.08
2022-09-09T19:33:47.721Z,15.00
2022-09-09T19:36:16.154Z,14.93
2022-09-09T19:38:42.688Z,14.88
2022-09-09T19:41:11.323Z,14.76
2022-09-09T19:43:39.582Z,14.75
2022-09-09T19:46:08.427Z,14.71
2022-09-09T19:48:36.788Z,14.66
2022-09-09T19:51:03.926Z,14.65
2022-09-09T19:53:31.195Z,14.62
2022-09-09T19:55:58.141Z,14.57
2022-09-09T19:58:24.909Z,14.51
2022-09-09T20:00:52.816Z,14.43
2022-09-09T20:03:20.110Z,14.45
2022-09-09T20:05:48.261Z,14.39
2022-09-09T20:08:15.356Z,14.39
2022-09-09T20:10:50.781Z,14.38
2022-09-09T20:13:17.824Z,14.37
2022-09-09T20:15:44.558Z,14.38
2022-09-09T20:18:12.913Z,14.35
2022-09-09T20:20:40.966Z,14.37
2022-09-09T20:23:07.543Z,14.37
2022-09-09T20:25:35.935Z,14.37
2022-09-09T20:28:02.976Z,14.35
2022-09-09T20:30:29.606Z,14.38
2022-09-09T20:32:56.246Z,14.40
2022-09-09T20:35:24.138Z,14.46
2022-09-09T20:37:50.665Z,14.50
2022-09-09T20:40:17.175Z,14.52
2022-09-09T20:42:43.683Z,14.53
2022-09-09T20:45:10.851Z,14.54
2022-09-09T20:47:37.329Z,14.55
2022-09-09T20:50:04.491Z,14.53
2022-09-09T20:52:32.376Z,14.54
2022-09-09T20:54:58.992Z,14.54
2022-09-09T20:57:25.548Z,14.52
2022-09-09T20:59:52.050Z,14.52
2022-09-09T21:02:18.576Z,14.51
2022-09-09T21:04:45.103Z,14.49
2022-09-09T21:07:11.709Z,14.44
2022-09-09T21:09:39.574Z,14.45
2022-09-09T21:12:06.608Z,14.49
2022-09-09T21:14:33.131Z,14.52
2022-09-09T21:16:59.620Z,14.53
2022-09-09T21:19:26.119Z,14.52
2022-09-09T21:21:52.656Z,14.52
2022-09-09T21:24:19.161Z,14.50
2022-09-09T21:26:47.024Z,14.45
2022-09-09T21:29:13.527Z,14.41
2022-09-09T21:31:40.074Z,14.29
2022-09-09T21:34:06.615Z,14.21
2022-09-09T21:36:33.155Z,14.18
2022-09-09T21:38:59.806Z,14.15
2022-09-09T21:41:26.398Z,14.11
2022-09-09T21:43:54.848Z,14.06
2022-09-09T21:46:21.774Z,14.03
2022-09-09T21:48:48.763Z,14.02
2022-09-09T21:51:16.511Z,14.02
2022-09-09T21:53:43.432Z,14.00
2022-09-09T21:56:11.875Z,13.96
2022-09-09T21:58:38.582Z,13.93
2022-09-09T22:01:11.178Z,13.92
2022-09-09T22:03:38.861Z,13.87
2022-09-09T22:06:06.427Z,13.84
2022-09-09T22:08:33.023Z,13.83
2022-09-09T22:11:05.945Z,13.83
2022-09-09T22:13:32.978Z,13.80
2022-09-09T22:16:02.676Z,13.79
2022-09-09T22:18:30.878Z,13.78
2022-09-09T22:20:58.889Z,13.81
2022-09-09T22:23:25.896Z,13.88
2022-09-09T22:25:53.171Z,13.91
2022-09-09T22:28:19.915Z,13.92
2022-09-09T22:30:46.409Z,13.88
2022-09-09T22:33:12.930Z,13.87
2022-09-09T22:35:42.199Z,13.84
2022-09-09T22:38:09.019Z,13.78
2022-09-09T22:40:35.923Z,13.75
2022-09-09T22:43:02.543Z,13.69
2022-09-09T22:45:29.163Z,13.63
2022-09-09T22:47:55.777Z,13.58
2022-09-09T22:50:22.409Z,13.55
2022-09-09T22:52:50.366Z,13.55
2022-09-09T22:55:16.957Z,13.59
2022-09-09T22:57:43.496Z,13.62
2022-09-09T23:00:11.785Z,13.62
2022-09-09T23:02:40.675Z,13.67
2022-09-09T23:05:08.484Z,13.71
2022-09-09T23:07:35.789Z,13.74
2022-09-09T23:10:04.967Z,13.73
2022-09-09T23:12:31.593Z,13.73
2022-09-09T23:14:58.101Z,13.72
2022-09-09T23:17:24.614Z,13.75
2022-09-09T23:19:51.159Z,13.77
2022-09-09T23:22:17.757Z,13.76
2022-09-09T23:24:44.280Z,13.77
2022-09-09T23:27:12.249Z,13.77
2022-09-09T23:29:38.782Z,13.79
2022-09-09T23:32:05.823Z,13.79
2022-09-09T23:34:32.569Z,13.77
2022-09-09T23:36:59.163Z,13.75
2022-09-09T23:39:25.665Z,13.78
2022-09-09T23:41:52.343Z,13.77
2022-09-09T23:44:20.196Z,13.78
2022-09-09T23:46:46.726Z,13.77
2022-09-09T23:49:13.400Z,13.74
2022-09-09T23:51:39.894Z,13.73
2022-09-09T23:54:06.540Z,13.73
2022-09-09T23:56:35.557Z,13.73
2022-09-09T23:59:02.033Z,13.74
